Time;durP1;ratioP1;P1;durP2;ratioP2;P2;SDS_P1;SDS_P2;PMS_P1;PMS_P2;Temp;Humidity;BMP_temperature;BMP_pressure;BME280_temperature;BME280_humidity;BME280_pressure;Samples;Min_cycle;Max_cycle;Signal;HPM_P1;HPM_P2
2024/02/01 00:01:29;;;;;;;44.10;22.45;;;2.20;99.90;;;;;;2602536;54;20245;31
2024/02/01 00:04:04;;;;;;;48.60;21.85;;;2.10;99.90;;;;;;2602475;54;20873;31
2024/02/01 00:06:40;;;;;;;45.80;21.15;;;2.10;99.90;;;;;;2621192;46;20022;31
2024/02/01 00:09:17;;;;;;;41.22;20.85;;;2.00;99.90;;;;;;2602648;54;20033;31
2024/02/01 00:11:55;;;;;;;45.15;21.10;;;1.90;99.90;;;;;;2602456;54;20030;31
2024/02/01 00:14:29;;;;;;;42.47;20.57;;;1.90;99.90;;;;;;2602565;54;21202;31
2024/02/01 00:17:04;;;;;;;39.90;18.95;;;1.80;99.90;;;;;;2602680;54;20871;31
2024/02/01 00:19:44;;;;;;;46.10;21.90;;;1.80;99.90;;;;;;2620762;47;20120;31
2024/02/01 00:22:19;;;;;;;43.08;21.80;;;1.70;99.90;;;;;;2602562;54;20034;31
2024/02/01 00:25:08;;;;;;;50.53;24.00;;;1.60;99.90;;;;;;2602445;54;20073;31
2024/02/01 00:27:48;;;;;;;50.33;22.92;;;1.60;99.90;;;;;;2602409;54;20093;31
2024/02/01 00:30:23;;;;;;;54.63;23.42;;;1.60;99.90;;;;;;2602420;54;20940;31
2024/02/01 00:33:01;;;;;;;51.50;23.45;;;1.50;99.90;;;;;;2602420;54;20034;31
2024/02/01 00:35:36;;;;;;;45.60;22.88;;;1.50;99.90;;;;;;2602449;54;20060;31
2024/02/01 00:38:17;;;;;;;45.55;22.05;;;1.40;99.90;;;;;;2621461;47;20792;31
2024/02/01 00:40:50;;;;;;;43.97;21.63;;;1.40;99.90;;;;;;2602575;54;21239;31
2024/02/01 00:43:29;;;;;;;37.60;18.80;;;1.30;99.90;;;;;;2602402;54;20034;31
2024/02/01 00:46:06;;;;;;;45.67;22.43;;;1.20;99.90;;;;;;2602698;54;20026;31
2024/02/01 00:48:40;;;;;;;49.35;22.75;;;1.20;99.90;;;;;;2620735;47;22493;31
2024/02/01 00:51:15;;;;;;;45.75;23.25;;;1.10;99.90;;;;;;2602484;54;20076;31
2024/02/01 00:53:49;;;;;;;48.00;19.65;;;1.00;99.90;;;;;;2602421;54;20026;31
2024/02/01 00:56:25;;;;;;;48.85;22.55;;;1.00;99.90;;;;;;2602540;54;20782;31
2024/02/01 00:59:02;;;;;;;45.33;21.47;;;1.00;99.90;;;;;;2620664;47;20780;31
2024/02/01 01:01:37;;;;;;;45.80;22.88;;;0.90;99.90;;;;;;2602178;54;20042;31
2024/02/01 01:04:15;;;;;;;43.70;21.83;;;0.90;99.90;;;;;;2602433;54;20053;31
2024/02/01 01:06:50;;;;;;;51.90;23.45;;;0.90;99.90;;;;;;2700876;39;21508;31
2024/02/01 01:09:27;;;;;;;42.70;21.90;;;0.90;99.90;;;;;;2602706;54;20032;31
2024/02/01 01:12:03;;;;;;;40.80;20.80;;;0.90;99.90;;;;;;2701767;39;21771;31
2024/02/01 01:14:41;;;;;;;46.45;21.10;;;0.90;99.90;;;;;;2621178;46;20026;31
2024/02/01 01:17:16;;;;;;;40.20;19.65;;;0.90;99.90;;;;;;2621301;46;20038;31
2024/02/01 01:19:54;;;;;;;44.20;21.20;;;0.90;99.90;;;;;;2773146;31;21555;31
2024/02/01 01:22:29;;;;;;;51.13;21.92;;;0.80;99.90;;;;;;2773064;31;21569;31
2024/02/01 01:25:05;;;;;;;46.33;20.58;;;0.80;99.90;;;;;;2603106;54;20889;31
2024/02/01 01:27:49;;;;;;;52.60;23.25;;;0.80;99.90;;;;;;2701967;39;21579;31
2024/02/01 01:30:31;;;;;;;47.08;23.67;;;0.80;99.90;;;;;;2603369;54;20742;31
2024/02/01 01:33:05;;;;;;;47.13;22.48;;;0.70;99.90;;;;;;2603079;54;20885;31
2024/02/01 01:35:40;;;;;;;51.07;22.30;;;0.70;99.90;;;;;;2603244;54;20105;31
2024/02/01 01:38:16;;;;;;;53.78;22.98;;;0.70;99.90;;;;;;2603285;54;20285;31
2024/02/01 01:40:48;;;;;;;66.55;27.88;;;0.60;99.90;;;;;;2603239;54;20027;31
2024/02/01 01:43:25;;;;;;;55.78;26.88;;;0.60;99.90;;;;;;2603237;54;20030;31
2024/02/01 01:46:03;;;;;;;;;;;0.50;99.90;;;;;;2603163;54;20050;31
2024/02/01 01:48:41;;;;;;;53.50;23.85;;;0.50;99.90;;;;;;2602925;54;19997;31
2024/02/01 01:51:15;;;;;;;52.55;25.15;;;0.50;99.90;;;;;;2603248;54;20876;31
2024/02/01 01:53:51;;;;;;;55.58;25.30;;;0.40;99.90;;;;;;2603212;54;20766;31
2024/02/01 01:56:28;;;;;;;54.30;24.67;;;0.50;99.90;;;;;;2603315;54;20038;31
2024/02/01 01:59:04;;;;;;;55.63;25.45;;;0.40;99.90;;;;;;2621911;46;20865;31
2024/02/01 02:01:42;;;;;;;55.25;25.90;;;0.40;99.90;;;;;;2603119;54;20026;31
2024/02/01 02:04:17;;;;;;;49.50;23.23;;;0.40;99.90;;;;;;2603111;54;20022;31
2024/02/01 02:06:55;;;;;;;61.20;25.88;;;0.40;99.90;;;;;;2622000;46;20937;31
2024/02/01 02:09:31;;;;;;;55.27;25.50;;;0.40;99.90;;;;;;2621855;46;20864;31
2024/02/01 02:12:07;;;;;;;51.72;24.58;;;0.40;99.90;;;;;;2602848;54;20292;31
2024/02/01 02:14:43;;;;;;;50.97;24.77;;;0.40;99.90;;;;;;2621423;46;20924;31
2024/02/01 02:17:20;;;;;;;45.50;22.60;;;0.40;99.90;;;;;;2602983;54;20246;31
2024/02/01 02:19:55;;;;;;;47.25;21.90;;;0.40;99.90;;;;;;2602584;54;20826;31
2024/02/01 02:22:36;;;;;;;50.05;22.80;;;0.40;99.90;;;;;;2602915;54;20034;31
2024/02/01 02:25:09;;;;;;;49.15;21.80;;;0.40;99.90;;;;;;2602954;54;20037;31
2024/02/01 02:27:45;;;;;;;42.67;21.77;;;0.40;99.90;;;;;;2602803;54;20881;31
2024/02/01 02:30:20;;;;;;;53.75;23.88;;;0.40;99.90;;;;;;2602899;54;21185;31
2024/02/01 02:32:55;;;;;;;42.25;21.80;;;0.40;99.90;;;;;;2603171;54;20050;31
2024/02/01 02:35:30;;;;;;;52.90;23.20;;;0.40;99.90;;;;;;2603019;54;20788;31
2024/02/01 02:38:09;;;;;;;49.20;22.20;;;0.40;99.90;;;;;;2621615;46;20027;31
2024/02/01 02:40:44;;;;;;;52.33;23.75;;;0.40;99.90;;;;;;2603041;54;20124;31
2024/02/01 02:43:21;;;;;;;55.63;23.70;;;0.30;99.90;;;;;;2602884;54;20053;31
2024/02/01 02:45:55;;;;;;;48.47;21.97;;;0.40;99.90;;;;;;2603130;54;20858;31
2024/02/01 02:48:30;;;;;;;45.95;22.50;;;0.30;99.90;;;;;;2772946;31;21512;31
2024/02/01 02:51:06;;;;;;;50.40;24.50;;;0.30;99.90;;;;;;2602854;54;20030;31
2024/02/01 02:53:45;;;;;;;63.72;24.10;;;0.30;99.90;;;;;;2621333;46;20057;31
2024/02/01 02:56:20;;;;;;;44.80;21.70;;;0.30;99.90;;;;;;2772932;31;21558;31
2024/02/01 02:58:55;;;;;;;54.30;22.45;;;0.30;99.90;;;;;;2602884;54;20066;31
2024/02/01 03:01:29;;;;;;;50.55;23.10;;;0.20;99.90;;;;;;2602866;54;20145;31
2024/02/01 03:04:03;;;;;;;48.33;23.13;;;0.20;99.90;;;;;;2603034;54;20037;31
2024/02/01 03:06:38;;;;;;;51.70;21.10;;;0.20;99.90;;;;;;2602812;54;20042;31
2024/02/01 03:09:16;;;;;;;47.50;22.73;;;0.10;99.90;;;;;;2602889;54;20031;31
2024/02/01 03:11:52;;;;;;;48.35;21.85;;;0.10;99.90;;;;;;2602764;54;20109;31
2024/02/01 03:14:25;;;;;;;48.33;21.67;;;0.20;99.90;;;;;;2701694;39;22294;31
2024/02/01 03:17:01;;;;;;;47.92;21.73;;;0.20;99.90;;;;;;2602810;54;20034;31
2024/02/01 03:19:38;;;;;;;44.80;21.83;;;0.20;99.90;;;;;;2602896;54;20031;31
2024/02/01 03:22:19;;;;;;;49.15;21.35;;;0.20;99.90;;;;;;2603163;54;20945;31
2024/02/01 03:25:02;;;;;;;51.28;21.60;;;0.20;99.90;;;;;;2602741;54;20030;31
2024/02/01 03:27:42;;;;;;;42.05;19.60;;;0.20;99.90;;;;;;2602813;54;20053;31
2024/02/01 03:30:18;;;;;;;43.10;21.38;;;0.30;99.90;;;;;;2603008;54;20037;31
2024/02/01 03:32:53;;;;;;;41.65;19.25;;;0.30;99.90;;;;;;2620806;46;20030;31
2024/02/01 03:35:31;;;;;;;41.45;20.90;;;0.30;99.90;;;;;;2602819;54;20881;31
2024/02/01 03:38:08;;;;;;;42.05;18.25;;;0.40;99.90;;;;;;2602687;54;20094;31
2024/02/01 03:40:45;;;;;;;42.22;19.17;;;0.40;99.90;;;;;;2602653;54;20023;31
2024/02/01 03:43:22;;;;;;;40.75;18.05;;;0.40;99.90;;;;;;2602746;54;21195;31
2024/02/01 03:45:58;;;;;;;31.65;15.55;;;0.50;99.90;;;;;;2602612;54;20033;31
2024/02/01 03:48:33;;;;;;;28.42;14.90;;;0.60;99.90;;;;;;2602636;54;20171;31
2024/02/01 03:51:08;;;;;;;28.80;15.40;;;0.70;99.90;;;;;;2602768;54;20026;31
2024/02/01 03:53:43;;;;;;;30.25;13.98;;;0.80;99.90;;;;;;2621185;46;20052;31
2024/02/01 03:56:23;;;;;;;25.53;12.53;;;0.90;99.90;;;;;;2602735;54;20109;31
2024/02/01 03:59:00;;;;;;;25.45;12.80;;;0.90;99.90;;;;;;2621087;46;20242;31
2024/02/01 04:01:36;;;;;;;23.37;11.80;;;1.00;99.90;;;;;;2602597;54;20073;31
2024/02/01 04:04:17;;;;;;;22.80;11.40;;;1.10;99.90;;;;;;2602934;54;20227;31
2024/02/01 04:06:54;;;;;;;21.67;10.77;;;1.20;99.90;;;;;;2602383;54;20027;31
2024/02/01 04:09:29;;;;;;;21.17;10.83;;;1.30;99.90;;;;;;2602598;54;20104;31
2024/02/01 04:12:07;;;;;;;18.08;9.23;;;1.40;99.90;;;;;;2602579;54;20900;31
2024/02/01 04:14:44;;;;;;;22.00;10.98;;;1.60;99.90;;;;;;2621074;46;20031;31
2024/02/01 04:17:19;;;;;;;24.77;12.07;;;1.60;99.90;;;;;;2602559;54;20854;31
2024/02/01 04:19:54;;;;;;;18.40;11.25;;;1.60;99.90;;;;;;2701443;39;22464;31
2024/02/01 04:22:29;;;;;;;21.02;10.15;;;1.70;99.90;;;;;;2621237;47;20026;31
2024/02/01 04:25:09;;;;;;;18.20;10.05;;;1.80;99.90;;;;;;2602595;54;20037;31
2024/02/01 04:27:49;;;;;;;19.45;9.65;;;1.90;99.90;;;;;;2602478;54;21608;31
2024/02/01 04:30:28;;;;;;;20.33;10.63;;;1.90;99.90;;;;;;2602642;54;20026;31
2024/02/01 04:33:04;;;;;;;18.77;10.35;;;2.00;99.90;;;;;;2620986;47;21197;31
2024/02/01 04:35:39;;;;;;;;;;;2.10;99.90;;;;;;2701203;39;21293;31
2024/02/01 04:38:14;;;;;;;17.25;8.23;;;2.10;99.90;;;;;;2621155;47;20743;31
2024/02/01 04:40:49;;;;;;;17.55;9.90;;;2.20;99.90;;;;;;2621074;47;20034;31
2024/02/01 04:43:23;;;;;;;18.17;9.32;;;2.20;99.90;;;;;;2620506;47;20045;31
2024/02/01 04:46:01;;;;;;;15.20;8.80;;;2.30;99.90;;;;;;2603379;54;20030;31
2024/02/01 04:48:37;;;;;;;15.98;8.52;;;2.30;99.90;;;;;;2603171;54;20061;31
2024/02/01 04:51:14;;;;;;;17.50;9.30;;;2.30;99.90;;;;;;2603286;54;20031;31
2024/02/01 04:53:50;;;;;;;21.30;8.73;;;2.40;99.90;;;;;;2603298;54;20026;31
2024/02/01 04:56:25;;;;;;;17.38;9.05;;;2.40;99.90;;;;;;2603208;54;20050;31
2024/02/01 04:59:03;;;;;;;12.50;7.45;;;2.40;99.90;;;;;;2603373;54;20095;31
2024/02/01 05:01:43;;;;;;;14.40;7.30;;;2.50;99.90;;;;;;2603406;54;20902;31
2024/02/01 05:04:18;;;;;;;17.45;7.97;;;2.50;99.90;;;;;;2621958;46;20727;31
2024/02/01 05:06:54;;;;;;;14.07;8.05;;;2.60;99.90;;;;;;2603093;54;20027;31
2024/02/01 05:09:32;;;;;;;16.70;7.80;;;2.60;99.90;;;;;;2603115;54;20027;31
2024/02/01 05:12:09;;;;;;;12.77;7.73;;;2.70;99.90;;;;;;2603413;54;20717;31
2024/02/01 05:14:44;;;;;;;12.83;7.53;;;2.70;99.90;;;;;;2603204;54;20808;31
2024/02/01 05:17:23;;;;;;;13.07;7.68;;;2.70;99.90;;;;;;2603275;54;20257;31
2024/02/01 05:19:59;;;;;;;11.88;6.45;;;2.80;99.90;;;;;;2603249;54;20876;31
2024/02/01 05:22:36;;;;;;;13.70;6.97;;;2.80;99.90;;;;;;2603244;54;20026;31
2024/02/01 05:25:19;;;;;;;10.35;6.22;;;2.90;99.90;;;;;;2606987;46;20054;31
2024/02/01 05:27:54;;;;;;;12.02;6.10;;;2.90;99.90;;;;;;2603046;54;20030;31
2024/02/01 05:30:30;;;;;;;11.07;6.85;;;3.00;99.90;;;;;;2603076;54;20038;31
2024/02/01 05:33:11;;;;;;;11.07;6.67;;;3.10;99.90;;;;;;2603029;54;20073;31
2024/02/01 05:35:45;;;;;;;16.58;6.72;;;3.10;99.90;;;;;;2603046;54;20301;31
2024/02/01 05:38:21;;;;;;;10.80;7.18;;;3.20;99.90;;;;;;2603161;54;20035;31
2024/02/01 05:40:56;;;;;;;11.73;7.07;;;3.30;99.90;;;;;;2621877;46;20877;31
2024/02/01 05:43:32;;;;;;;10.77;5.30;;;3.30;99.90;;;;;;2621474;46;20030;31
2024/02/01 05:46:09;;;;;;;12.70;6.85;;;3.40;99.90;;;;;;2603168;54;21020;31
2024/02/01 05:48:48;;;;;;;10.73;4.90;;;3.40;99.90;;;;;;2603255;54;20033;31
2024/02/01 05:51:27;;;;;;;11.88;4.95;;;3.50;99.90;;;;;;2602983;54;20035;31
2024/02/01 05:54:02;;;;;;;11.55;5.75;;;3.60;99.90;;;;;;2602985;54;20864;31
2024/02/01 05:56:36;;;;;;;8.73;5.10;;;3.60;99.90;;;;;;2602756;54;20038;31
2024/02/01 05:59:13;;;;;;;7.50;4.25;;;3.70;99.90;;;;;;2602941;54;21554;31
2024/02/01 06:01:49;;;;;;;;;;;3.80;99.90;;;;;;2603141;54;20082;31
2024/02/01 06:04:26;;;;;;;8.68;4.75;;;3.80;99.90;;;;;;2621440;46;19946;31
2024/02/01 06:07:04;;;;;;;8.18;4.75;;;3.90;99.90;;;;;;2602949;54;20026;31
2024/02/01 06:09:41;;;;;;;8.80;5.30;;;4.00;99.90;;;;;;2603032;54;20030;31
2024/02/01 06:12:17;;;;;;;10.98;5.63;;;4.00;99.90;;;;;;2603022;54;20037;31
2024/02/01 06:14:55;;;;;;;12.88;5.28;;;4.10;99.90;;;;;;2603042;54;20900;31
2024/02/01 06:17:30;;;;;;;10.65;5.70;;;4.10;99.90;;;;;;2603050;54;20031;31
2024/02/01 06:20:10;;;;;;;9.90;5.60;;;4.10;99.90;;;;;;2602901;54;20043;31
2024/02/01 06:22:47;;;;;;;11.75;5.82;;;4.10;99.90;;;;;;2701595;39;21466;31
2024/02/01 06:25:23;;;;;;;8.60;5.17;;;4.10;99.90;;;;;;2602873;54;20890;31
2024/02/01 06:27:58;;;;;;;11.35;6.00;;;4.20;99.90;;;;;;2603026;54;20861;31
2024/02/01 06:30:40;;;;;;;12.20;5.90;;;4.20;99.90;;;;;;2602962;54;20046;31
2024/02/01 06:33:16;;;;;;;11.00;5.57;;;4.20;99.90;;;;;;2621674;46;20049;31
2024/02/01 06:35:55;;;;;;;12.10;7.25;;;4.20;99.90;;;;;;2603065;54;20834;31
2024/02/01 06:42:14;;;;;;;13.40;6.30;;;4.30;99.90;;;;;;2602973;54;20808;31
2024/02/01 06:45:09;;;;;;;14.18;6.22;;;4.20;99.90;;;;;;2602820;54;20034;31
2024/02/01 06:48:22;;;;;;;8.27;5.35;;;4.20;99.90;;;;;;2602784;54;20037;31
2024/02/01 06:57:44;;;;;;;11.25;6.03;;;4.30;99.90;;;;;;2602628;54;20131;31
2024/02/01 07:00:40;;;;;;;12.38;6.55;;;4.30;99.90;;;;;;2603158;54;20028;31
2024/02/01 07:03:44;;;;;;;11.80;6.60;;;4.30;99.90;;;;;;2602569;54;20042;31
2024/02/01 07:07:04;;;;;;;12.45;6.00;;;4.30;99.90;;;;;;2602869;54;20867;31
2024/02/01 07:10:11;;;;;;;11.00;6.20;;;4.30;99.90;;;;;;2602644;54;20053;31
2024/02/01 07:13:21;;;;;;;10.57;5.87;;;4.30;99.90;;;;;;2602736;54;19934;31
2024/02/01 07:26:58;;;;;;;16.17;6.88;;;4.40;99.90;;;;;;2603217;54;20032;31
2024/02/01 08:08:39;;;;;;;13.00;6.05;;;4.50;99.90;;;;;;2602676;54;21124;31
2024/02/01 08:11:25;;;;;;;13.48;6.70;;;4.50;99.90;;;;;;2602767;54;20856;31
2024/02/01 08:14:15;;;;;;;11.82;6.07;;;4.60;99.90;;;;;;2602488;54;20029;31
2024/02/01 08:17:11;;;;;;;13.60;6.40;;;4.50;99.90;;;;;;2602345;54;20033;31
2024/02/01 08:20:29;;;;;;;10.35;5.70;;;4.60;99.90;;;;;;2602829;54;20049;31
2024/02/01 08:29:54;;;;;;;;;;;;;;;;;;;;;
2024/02/01 09:07:11;;;;;;;12.85;5.50;;;4.90;99.90;;;;;;2610262;54;19927;31
2024/02/01 09:40:17;;;;;;;6.03;3.75;;;5.10;99.90;;;;;;2604671;46;20026;31
2024/02/01 10:01:37;;;;;;;6.55;3.80;;;5.30;99.90;;;;;;2610213;54;19931;31
2024/02/01 10:04:27;;;;;;;6.28;4.28;;;5.40;99.90;;;;;;2603095;54;20891;31
2024/02/01 11:35:10;;;;;;;4.83;2.80;;;6.00;99.90;;;;;;2609917;54;20648;31
2024/02/01 11:38:06;;;;;;;5.70;3.47;;;6.00;99.90;;;;;;2602818;54;20281;31
2024/02/01 11:40:42;;;;;;;;;;;6.10;99.90;;;;;;2602930;54;20101;31
2024/02/01 11:43:25;;;;;;;6.50;3.10;;;6.20;99.90;;;;;;2602626;54;19961;31
2024/02/01 12:17:50;;;;;;;2.75;1.65;;;6.60;99.90;;;;;;2700383;39;21063;31
2024/02/01 12:46:00;;;;;;;1.70;0.70;;;6.70;99.90;;;;;;2601412;54;20226;31
2024/02/01 12:48:59;;;;;;;3.38;1.10;;;6.80;99.90;;;;;;2602403;54;20046;31
2024/02/01 12:51:47;;;;;;;3.40;0.80;;;6.90;99.90;;;;;;2620972;47;20893;31
2024/02/01 12:58:00;;;;;;;1.83;0.80;;;7.10;99.90;;;;;;2602406;54;20857;31
2024/02/01 13:00:55;;;;;;;3.67;1.13;;;7.10;99.90;;;;;;2602567;54;21082;31
2024/02/01 13:03:39;;;;;;;1.80;0.80;;;7.20;99.90;;;;;;2602340;54;20029;31
2024/02/01 13:06:37;;;;;;;2.13;1.00;;;7.20;99.90;;;;;;2602621;54;20873;31
2024/02/01 13:12:35;;;;;;;1.55;0.65;;;7.20;99.90;;;;;;2603155;54;20125;31
2024/02/01 13:15:25;;;;;;;2.05;1.08;;;7.30;99.90;;;;;;2619432;46;20051;31
2024/02/01 13:18:11;;;;;;;1.85;0.98;;;7.30;99.90;;;;;;2603005;54;20038;31
2024/02/01 13:20:55;;;;;;;2.13;1.10;;;7.40;99.90;;;;;;2602939;54;20027;31
2024/02/01 13:29:29;;;;;;;2.17;0.80;;;7.30;89.30;;;;;;2602929;54;20094;31
2024/02/01 13:32:14;;;;;;;2.63;0.68;;;7.20;90.00;;;;;;2603154;54;20028;31
2024/02/01 13:37:51;;;;;;;2.75;1.25;;;7.00;91.10;;;;;;2602546;54;20047;31
2024/02/01 13:46:31;;;;;;;1.33;0.70;;;6.90;93.00;;;;;;2602258;54;20129;31
2024/02/01 13:49:22;;;;;;;3.97;0.80;;;6.80;94.10;;;;;;2602407;54;21039;31
2024/02/01 13:57:53;;;;;;;2.67;0.85;;;6.90;94.90;;;;;;2602861;54;20048;31
2024/02/01 14:19:15;;;;;;;3.60;1.05;;;7.20;82.10;;;;;;2601791;54;19954;31
2024/02/01 14:22:15;;;;;;;4.15;0.65;;;7.20;64.70;;;;;;2601918;54;20022;31
2024/02/01 14:30:59;;;;;;;1.20;0.50;;;7.20;59.30;;;;;;2603317;54;21090;31
2024/02/01 14:33:42;;;;;;;6.13;0.90;;;7.20;90.90;;;;;;2602850;54;20090;31
2024/02/01 14:36:56;;;;;;;2.10;0.60;;;7.10;91.30;;;;;;2621233;46;22217;31
2024/02/01 14:39:39;;;;;;;1.53;0.50;;;7.00;92.70;;;;;;2601971;54;20074;31
2024/02/01 14:45:32;;;;;;;1.40;0.75;;;6.90;88.70;;;;;;2602129;54;20022;31
2024/02/01 14:48:18;;;;;;;2.13;0.47;;;6.80;88.70;;;;;;2621580;46;21576;31
2024/02/01 14:53:52;;;;;;;3.28;1.27;;;6.70;44.10;;;;;;2601964;54;20911;31
2024/02/01 15:02:52;;;;;;;3.47;0.70;;;6.60;46.60;;;;;;2602782;54;20731;31
2024/02/01 15:05:35;;;;;;;4.43;0.73;;;6.60;47.60;;;;;;2602729;54;20077;31
2024/02/01 15:08:18;;;;;;;2.80;0.70;;;6.60;49.90;;;;;;2602047;54;20948;31
2024/02/01 15:11:21;;;;;;;1.73;0.53;;;6.60;50.30;;;;;;2602822;54;20037;31
2024/02/01 15:13:59;;;;;;;3.45;1.00;;;6.60;47.40;;;;;;2602655;54;20078;31
2024/02/01 15:16:45;;;;;;;3.90;0.80;;;6.60;45.80;;;;;;2621149;46;20837;31
2024/02/01 15:19:28;;;;;;;2.50;0.60;;;6.60;45.90;;;;;;2602911;54;20093;31
2024/02/01 15:22:21;;;;;;;3.25;0.95;;;6.60;44.30;;;;;;2602849;54;20893;31
2024/02/01 15:25:13;;;;;;;4.15;0.90;;;6.60;44.60;;;;;;2602672;54;20934;31
2024/02/01 15:27:59;;;;;;;3.80;1.00;;;6.50;44.50;;;;;;2602898;54;20904;31
2024/02/01 15:30:39;;;;;;;3.90;0.60;;;6.40;38.10;;;;;;2602649;54;20892;31
2024/02/01 15:33:22;;;;;;;5.60;1.17;;;6.40;34.90;;;;;;2701334;39;21391;31
2024/02/01 15:35:57;;;;;;;9.00;1.00;;;6.40;32.50;;;;;;2620817;46;20816;31
2024/02/01 15:38:48;;;;;;;1.90;0.50;;;6.30;32.30;;;;;;2602891;54;20048;31
2024/02/01 15:47:14;;;;;;;1.73;0.60;;;6.20;25.90;;;;;;2602840;46;20030;31
2024/02/01 15:50:06;;;;;;;3.42;1.13;;;6.10;26.00;;;;;;2602865;54;20873;31
2024/02/01 15:56:18;;;;;;;1.65;0.60;;;6.10;27.10;;;;;;2602416;54;20026;31
2024/02/01 15:58:54;;;;;;;3.17;1.00;;;6.10;28.20;;;;;;2602451;54;20053;31
2024/02/01 16:01:31;;;;;;;4.90;1.10;;;6.10;29.30;;;;;;2602528;54;20863;31
2024/02/01 16:04:03;;;;;;;;;;;6.10;27.10;;;;;;2701706;39;22426;31
2024/02/01 16:06:53;;;;;;;4.60;0.60;;;6.10;27.30;;;;;;2602569;54;20683;31
2024/02/01 16:12:26;;;;;;;;;;;6.10;27.60;;;;;;2602634;54;20065;31
2024/02/01 16:15:04;;;;;;;2.80;0.82;;;6.10;25.30;;;;;;2602274;54;19935;31
2024/02/01 16:17:46;;;;;;;3.35;0.90;;;6.10;27.10;;;;;;2602648;54;20030;31
2024/02/01 16:23:16;;;;;;;3.80;0.70;;;6.10;23.60;;;;;;2602549;54;20038;31
2024/02/01 16:25:51;;;;;;;2.50;0.65;;;6.10;20.40;;;;;;2620997;46;20037;31
2024/02/01 16:28:36;;;;;;;7.15;1.88;;;6.10;19.00;;;;;;2602516;54;20030;31
2024/02/01 16:31:13;;;;;;;2.80;0.90;;;6.10;18.70;;;;;;2602556;54;20817;31
2024/02/01 16:33:58;;;;;;;6.18;0.77;;;6.10;17.80;;;;;;2602498;54;20037;31
2024/02/01 16:36:57;;;;;;;4.20;0.82;;;6.20;18.50;;;;;;2602580;54;20744;31
2024/02/01 16:39:52;;;;;;;7.07;0.80;;;6.20;18.70;;;;;;2602488;54;20883;31
2024/02/01 16:42:39;;;;;;;2.40;0.70;;;6.20;20.40;;;;;;2621895;46;20727;31
2024/02/01 16:45:22;;;;;;;4.40;0.85;;;6.20;20.50;;;;;;2602921;54;20030;31
2024/02/01 16:47:59;;;;;;;4.53;1.05;;;6.20;22.30;;;;;;2603355;54;20895;31
2024/02/01 16:50:42;;;;;;;4.17;1.40;;;6.20;22.90;;;;;;2603148;54;20052;31
2024/02/01 16:53:28;;;;;;;5.43;1.40;;;6.20;23.50;;;;;;2602924;54;20246;31
2024/02/01 16:56:06;;;;;;;3.95;1.65;;;6.20;24.60;;;;;;2603047;54;20847;31
2024/02/01 16:58:45;;;;;;;10.57;2.00;;;6.20;26.40;;;;;;2621874;46;20053;31
2024/02/01 17:01:43;;;;;;;7.95;1.83;;;6.20;28.40;;;;;;2603273;54;20273;31
2024/02/01 17:04:22;;;;;;;4.00;1.10;;;6.20;26.50;;;;;;2603209;54;20931;31
2024/02/01 17:06:58;;;;;;;3.45;1.30;;;6.20;25.60;;;;;;2621720;46;20787;31
2024/02/01 17:09:42;;;;;;;2.97;1.20;;;6.20;23.20;;;;;;2621921;46;20032;31
2024/02/01 17:12:17;;;;;;;3.95;1.30;;;6.20;28.50;;;;;;2603251;54;20858;31
2024/02/01 17:14:54;;;;;;;6.43;1.60;;;6.20;23.10;;;;;;2603286;54;20030;31
2024/02/01 17:17:41;;;;;;;10.25;1.98;;;6.20;24.40;;;;;;2621216;46;21926;31
2024/02/01 17:20:18;;;;;;;4.43;1.27;;;6.20;23.00;;;;;;2621649;46;20868;31
2024/02/01 17:23:00;;;;;;;4.80;1.75;;;6.20;55.00;;;;;;2602938;54;20026;31
2024/02/01 17:28:16;;;;;;;5.93;1.00;;;6.30;24.10;;;;;;2603255;54;20870;31
2024/02/01 17:31:04;;;;;;;2.80;1.00;;;6.20;21.20;;;;;;2602980;54;20919;31
2024/02/01 17:34:03;;;;;;;5.65;1.58;;;6.20;23.00;;;;;;2603121;54;20105;31
2024/02/01 17:36:45;;;;;;;6.40;1.55;;;6.20;22.10;;;;;;2621310;46;20030;31
2024/02/01 17:39:55;;;;;;;3.80;1.27;;;6.20;22.80;;;;;;2603131;54;20073;31
2024/02/01 17:42:34;;;;;;;4.93;1.10;;;6.10;25.30;;;;;;2621255;46;21225;31
2024/02/01 17:45:26;;;;;;;8.63;1.67;;;6.10;26.40;;;;;;2621455;46;20903;31
2024/02/01 17:48:05;;;;;;;5.43;1.38;;;6.10;25.70;;;;;;2603160;54;20579;31
2024/02/01 17:50:47;;;;;;;4.75;1.65;;;6.10;27.40;;;;;;2602886;54;20864;31
2024/02/01 17:53:23;;;;;;;5.95;1.55;;;6.10;27.60;;;;;;2603179;54;20030;31
2024/02/01 17:56:04;;;;;;;6.45;2.75;;;6.10;29.40;;;;;;2603250;54;20034;31
2024/02/01 17:58:45;;;;;;;7.40;1.73;;;6.10;30.40;;;;;;2602621;54;20935;31
2024/02/01 18:01:21;;;;;;;6.70;1.80;;;6.10;31.20;;;;;;2621175;46;20333;31
2024/02/01 18:03:59;;;;;;;4.78;1.25;;;6.10;31.00;;;;;;2603039;54;20872;31
2024/02/01 18:06:43;;;;;;;6.70;1.80;;;6.00;33.40;;;;;;2602977;54;20114;31
2024/02/01 18:09:23;;;;;;;4.13;1.40;;;6.00;34.50;;;;;;2602955;54;20791;31
2024/02/01 18:12:00;;;;;;;4.47;1.35;;;6.00;35.70;;;;;;2602882;54;20937;31
2024/02/01 18:14:35;;;;;;;7.15;1.80;;;6.00;33.40;;;;;;2602760;54;20842;31
2024/02/01 18:17:11;;;;;;;5.57;1.88;;;6.00;36.00;;;;;;2720012;39;22416;31
2024/02/01 18:19:47;;;;;;;5.35;1.50;;;6.00;36.20;;;;;;2602585;54;20108;31
2024/02/01 18:22:30;;;;;;;5.70;1.75;;;6.00;37.60;;;;;;2602839;54;20941;31
2024/02/01 18:27:40;;;;;;;6.47;1.67;;;6.00;37.50;;;;;;2602339;54;20906;31
2024/02/01 18:30:18;;;;;;;4.57;1.58;;;6.00;38.00;;;;;;2701494;39;22367;31
2024/02/01 18:32:55;;;;;;;5.85;1.48;;;6.00;38.90;;;;;;2603021;54;20879;31
2024/02/01 18:35:35;;;;;;;5.18;1.30;;;6.00;38.40;;;;;;2603199;54;20902;31
2024/02/01 18:38:24;;;;;;;8.20;1.50;;;6.00;40.00;;;;;;2602784;54;20027;31
2024/02/01 18:40:59;;;;;;;4.55;1.15;;;6.00;38.50;;;;;;2603076;54;20921;31
2024/02/01 18:43:37;;;;;;;5.13;1.25;;;5.90;40.20;;;;;;2602708;54;20755;31
2024/02/01 18:46:20;;;;;;;2.97;1.13;;;5.80;41.50;;;;;;2602737;54;20033;31
2024/02/01 18:48:55;;;;;;;5.40;1.35;;;5.80;41.50;;;;;;2603011;54;20038;31
2024/02/01 18:51:30;;;;;;;4.50;1.47;;;5.70;43.70;;;;;;2603109;54;20037;31
2024/02/01 18:54:08;;;;;;;5.78;2.17;;;5.70;50.70;;;;;;2621289;46;20110;31
2024/02/01 18:56:46;;;;;;;5.85;2.05;;;5.60;48.00;;;;;;2602615;54;20034;31
2024/02/01 19:00:11;;;;;;;5.90;1.73;;;5.50;49.40;;;;;;2602676;54;21209;31
2024/02/01 19:02:50;;;;;;;8.77;2.30;;;5.50;50.70;;;;;;2601901;54;20042;31
2024/02/01 19:05:29;;;;;;;6.22;2.10;;;5.50;59.60;;;;;;2602609;54;20024;31
2024/02/01 19:08:14;;;;;;;9.85;2.25;;;5.40;58.30;;;;;;2602898;54;21442;31
2024/02/01 19:10:55;;;;;;;9.10;2.25;;;5.40;56.50;;;;;;2602701;54;20097;31
2024/02/01 19:14:25;;;;;;;8.50;2.80;;;5.20;57.90;;;;;;2602871;54;20142;31
2024/02/01 19:17:01;;;;;;;12.37;3.07;;;5.30;61.00;;;;;;2602609;54;20037;31
2024/02/01 19:19:46;;;;;;;8.45;2.17;;;5.20;66.60;;;;;;2602835;54;20039;31
2024/02/01 19:22:34;;;;;;;9.53;2.33;;;5.20;62.20;;;;;;2602724;54;20023;31
2024/02/01 19:25:14;;;;;;;7.87;2.20;;;5.20;62.40;;;;;;2603013;54;20045;31
2024/02/01 19:27:55;;;;;;;6.38;2.30;;;5.10;63.30;;;;;;2602753;54;20053;31
2024/02/01 19:30:45;;;;;;;5.65;2.08;;;5.10;65.20;;;;;;2602749;54;20049;31
2024/02/01 19:33:20;;;;;;;9.55;2.75;;;5.10;67.80;;;;;;2602826;46;21542;31
2024/02/01 19:35:59;;;;;;;6.90;2.10;;;5.00;66.60;;;;;;2621496;46;20848;31
2024/02/01 19:38:39;;;;;;;11.75;2.45;;;5.00;67.80;;;;;;2602756;54;20965;31
2024/02/01 19:41:19;;;;;;;13.30;3.40;;;5.00;68.70;;;;;;2602622;54;20023;31
2024/02/01 19:44:05;;;;;;;11.05;3.25;;;4.90;68.20;;;;;;2700254;39;21502;31
2024/02/01 19:46:46;;;;;;;9.45;2.75;;;4.90;68.20;;;;;;2621147;46;20026;31
2024/02/01 19:49:23;;;;;;;9.45;1.90;;;4.90;70.30;;;;;;2602635;54;20023;31
2024/02/01 19:52:03;;;;;;;8.18;2.10;;;4.90;71.10;;;;;;2612989;46;20816;31
2024/02/01 19:54:43;;;;;;;10.80;1.85;;;4.90;72.60;;;;;;2602613;54;20038;31
2024/02/01 19:57:20;;;;;;;6.32;1.60;;;4.90;72.70;;;;;;2621391;46;20813;31
2024/02/01 20:00:08;;;;;;;9.80;2.80;;;4.90;70.70;;;;;;2700932;39;20421;31
2024/02/01 20:02:54;;;;;;;7.50;2.10;;;4.90;73.60;;;;;;2621114;46;21165;31
2024/02/01 20:05:32;;;;;;;7.03;1.98;;;4.90;74.80;;;;;;2602705;54;20922;31
2024/02/01 20:08:11;;;;;;;6.05;1.80;;;5.00;74.70;;;;;;2602600;54;20032;31
2024/02/01 20:10:54;;;;;;;7.97;2.00;;;5.00;75.00;;;;;;2602752;54;20031;31
2024/02/01 20:13:31;;;;;;;7.75;1.90;;;5.00;74.40;;;;;;2700957;39;20599;31
2024/02/01 20:16:15;;;;;;;10.60;2.90;;;5.10;74.90;;;;;;2602723;54;20888;31
2024/02/01 20:18:53;;;;;;;9.95;2.45;;;5.10;76.00;;;;;;2601952;54;20029;31
2024/02/01 20:21:40;;;;;;;8.70;2.42;;;5.10;74.50;;;;;;2618685;46;20035;31
2024/02/01 20:24:18;;;;;;;12.18;2.22;;;5.10;75.50;;;;;;2602583;54;20104;31
2024/02/01 20:27:02;;;;;;;9.73;2.05;;;5.10;76.10;;;;;;2602309;54;20049;31
2024/02/01 20:29:39;;;;;;;8.37;2.10;;;5.20;76.50;;;;;;2603686;47;20057;31
2024/02/01 20:32:20;;;;;;;8.20;2.40;;;5.20;76.40;;;;;;2602428;54;20104;31